createdAt,value
2022-11-18T00:01:10.399Z,8.10
2022-11-18T00:03:38.135Z,8.10
2022-11-18T00:06:05.876Z,8.00
2022-11-18T00:08:33.512Z,8.00
2022-11-18T00:11:06.331Z,8.00
2022-11-18T00:13:51.908Z,8.00
2022-11-18T00:16:19.155Z,8.00
2022-11-18T00:18:46.481Z,8.00
2022-11-18T00:21:13.800Z,8.00
2022-11-18T00:23:41.067Z,8.00
2022-11-18T00:26:10.307Z,8.00
2022-11-18T00:28:37.621Z,8.00
2022-11-18T00:31:06.345Z,8.00
2022-11-18T00:33:33.644Z,7.90
2022-11-18T00:36:00.931Z,7.90
2022-11-18T00:38:28.739Z,7.90
2022-11-18T00:41:13.080Z,7.90
2022-11-18T00:43:40.509Z,7.90
2022-11-18T00:46:10.685Z,7.90
2022-11-18T00:48:38.084Z,7.90
2022-11-18T00:51:18.248Z,7.90
2022-11-18T00:53:45.497Z,7.90
2022-11-18T00:56:12.714Z,7.90
2022-11-18T00:58:39.986Z,7.90
2022-11-18T01:01:07.356Z,7.80
2022-11-18T01:03:34.671Z,7.80
2022-11-18T01:06:01.906Z,7.80
2022-11-18T01:08:29.157Z,7.80
2022-11-18T01:11:17.376Z,7.80
2022-11-18T01:13:44.618Z,7.70
2022-11-18T01:16:11.920Z,7.70
2022-11-18T01:18:39.151Z,7.70
2022-11-18T01:21:07.122Z,7.70
2022-11-18T01:23:34.382Z,7.70
2022-11-18T01:26:04.946Z,7.70
2022-11-18T01:28:32.441Z,7.70
2022-11-18T01:31:07.243Z,7.70
2022-11-18T01:33:34.596Z,7.60
2022-11-18T01:36:02.154Z,7.60
2022-11-18T01:38:29.597Z,7.60
2022-11-18T01:40:56.881Z,7.60
2022-11-18T01:43:24.311Z,7.60
2022-11-18T01:45:51.945Z,7.70
2022-11-18T01:48:29.154Z,7.70
2022-11-18T01:51:16.413Z,7.70
2022-11-18T01:54:06.894Z,7.70
2022-11-18T01:56:39.576Z,7.70
2022-11-18T01:59:13.551Z,7.70
2022-11-18T02:01:41.000Z,7.70
2022-11-18T02:04:08.337Z,7.70
2022-11-18T02:06:36.126Z,7.70
2022-11-18T02:09:03.944Z,7.70
2022-11-18T02:11:49.703Z,7.70
2022-11-18T02:14:19.650Z,7.70
2022-11-18T02:17:23.839Z,7.70
2022-11-18T02:20:03.900Z,7.70
2022-11-18T02:22:31.103Z,7.70
2022-11-18T02:25:34.527Z,7.70
2022-11-18T02:28:07.494Z,7.70
2022-11-18T02:30:39.692Z,7.70
2022-11-18T02:33:18.093Z,7.60
2022-11-18T02:35:47.585Z,7.60
2022-11-18T02:38:19.200Z,7.60
2022-11-18T02:40:48.256Z,7.60
2022-11-18T02:43:22.825Z,7.60
2022-11-18T02:45:52.498Z,7.60
2022-11-18T02:48:20.148Z,7.60
2022-11-18T02:50:47.396Z,7.60
2022-11-18T02:53:15.066Z,7.60
2022-11-18T02:55:42.360Z,7.60
2022-11-18T02:58:09.624Z,7.60
2022-11-18T03:00:36.885Z,7.60
2022-11-18T03:03:30.221Z,7.60
2022-11-18T03:06:35.338Z,7.60
2022-11-18T03:09:29.893Z,7.60
2022-11-18T03:12:27.655Z,7.60
2022-11-18T03:15:11.260Z,7.60
2022-11-18T03:17:48.817Z,7.60
2022-11-18T03:20:30.939Z,7.60
2022-11-18T03:23:08.356Z,7.60
2022-11-18T03:25:42.551Z,7.60
2022-11-18T03:28:32.667Z,7.50
2022-11-18T03:31:07.096Z,7.60
2022-11-18T03:33:42.623Z,7.50
2022-11-18T03:36:10.479Z,7.60
2022-11-18T03:38:39.910Z,7.60
2022-11-18T03:41:08.721Z,7.60
2022-11-18T03:43:38.776Z,7.60
2022-11-18T03:46:20.212Z,7.60
2022-11-18T03:48:52.329Z,7.60
2022-11-18T03:51:22.992Z,7.60
2022-11-18T03:53:57.192Z,7.60
2022-11-18T03:56:31.062Z,7.50
2022-11-18T03:59:05.117Z,7.60
2022-11-18T04:01:40.370Z,7.50
2022-11-18T04:04:08.700Z,7.60
2022-11-18T04:06:50.220Z,7.50
2022-11-18T04:09:24.396Z,7.50
2022-11-18T04:12:03.376Z,7.50
2022-11-18T04:14:35.755Z,7.50
2022-11-18T04:17:09.420Z,7.50
2022-11-18T04:19:36.767Z,7.50
2022-11-18T04:22:04.112Z,7.50
2022-11-18T04:24:31.393Z,7.50
2022-11-18T04:26:58.886Z,7.40
2022-11-18T04:29:26.227Z,7.40
2022-11-18T04:31:53.466Z,7.50
2022-11-18T04:34:20.743Z,7.40
2022-11-18T04:36:47.961Z,7.40
2022-11-18T04:39:15.469Z,7.40
2022-11-18T04:42:00.612Z,7.40
2022-11-18T04:44:34.388Z,7.40
2022-11-18T04:47:03.750Z,7.40
2022-11-18T04:49:31.282Z,7.40
2022-11-18T04:51:58.747Z,7.40
2022-11-18T04:54:26.319Z,7.40
2022-11-18T04:56:54.031Z,7.40
2022-11-18T04:59:23.115Z,7.30
2022-11-18T05:01:50.591Z,7.40
2022-11-18T05:04:21.075Z,7.40
2022-11-18T05:06:48.381Z,7.40
2022-11-18T05:09:16.300Z,7.40
2022-11-18T05:12:02.098Z,7.40
2022-11-18T05:14:29.665Z,7.40
2022-11-18T05:16:59.553Z,7.40
2022-11-18T05:19:26.998Z,7.40
2022-11-18T05:21:54.413Z,7.50
2022-11-18T05:24:24.126Z,7.40
2022-11-18T05:26:52.290Z,7.40
2022-11-18T05:29:20.243Z,7.50
2022-11-18T05:31:47.929Z,7.40
2022-11-18T05:34:15.416Z,7.40
2022-11-18T05:36:42.736Z,7.40
2022-11-18T05:39:12.681Z,7.40
2022-11-18T05:41:58.990Z,7.40
2022-11-18T05:44:26.290Z,7.40
2022-11-18T05:46:54.565Z,7.40
2022-11-18T05:49:21.940Z,7.40
2022-11-18T05:51:49.168Z,7.40
2022-11-18T05:54:17.211Z,7.40
2022-11-18T05:56:45.601Z,7.30
2022-11-18T05:59:14.040Z,7.30
2022-11-18T06:01:51.012Z,7.30
2022-11-18T06:04:43.080Z,7.30
2022-11-18T06:07:20.420Z,7.30
2022-11-18T06:09:49.454Z,7.30
2022-11-18T06:12:17.935Z,7.30
2022-11-18T06:14:48.843Z,7.20
2022-11-18T06:17:19.617Z,7.30
2022-11-18T06:19:46.822Z,7.30
2022-11-18T06:22:14.097Z,7.30
2022-11-18T06:24:41.692Z,7.30
2022-11-18T06:27:08.877Z,7.30
2022-11-18T06:29:36.163Z,7.30
2022-11-18T06:32:03.488Z,7.30
2022-11-18T06:34:30.761Z,7.20
2022-11-18T06:36:58.182Z,7.30
2022-11-18T06:39:25.547Z,7.30
2022-11-18T06:41:53.918Z,7.30
2022-11-18T06:44:21.291Z,7.30
2022-11-18T06:46:57.499Z,7.30
2022-11-18T06:49:25.341Z,7.30
2022-11-18T06:51:53.892Z,7.30
2022-11-18T06:54:21.378Z,7.30
2022-11-18T06:56:48.851Z,7.30
2022-11-18T06:59:22.103Z,7.30
2022-11-18T07:01:49.606Z,7.30
2022-11-18T07:04:17.017Z,7.30
2022-11-18T07:06:44.299Z,7.30
2022-11-18T07:09:11.577Z,7.30
2022-11-18T07:11:41.283Z,7.30
2022-11-18T07:14:09.133Z,7.30
2022-11-18T07:16:36.740Z,7.30
2022-11-18T07:19:11.451Z,7.30
2022-11-18T07:21:39.039Z,7.20
2022-11-18T07:24:07.744Z,7.30
2022-11-18T07:26:35.606Z,7.20
2022-11-18T07:29:02.949Z,7.20
2022-11-18T07:31:30.259Z,7.30
2022-11-18T07:33:57.610Z,7.20
2022-11-18T07:36:30.871Z,7.30
2022-11-18T07:39:02.552Z,7.30
2022-11-18T07:41:36.108Z,7.30
2022-11-18T07:44:05.093Z,7.30
2022-11-18T07:46:33.887Z,7.30
2022-11-18T07:49:02.275Z,7.30
2022-11-18T07:51:31.067Z,7.30
2022-11-18T07:53:58.454Z,7.40
2022-11-18T07:56:25.698Z,7.30
2022-11-18T07:59:24.046Z,7.30
2022-11-18T08:01:51.402Z,7.40
2022-11-18T08:04:18.746Z,7.40
2022-11-18T08:06:46.008Z,7.40
2022-11-18T08:09:13.446Z,7.40
2022-11-18T08:11:40.932Z,7.40
2022-11-18T08:14:08.196Z,7.40
2022-11-18T08:16:35.621Z,7.40
2022-11-18T08:19:03.877Z,7.40
2022-11-18T08:21:31.242Z,7.50
2022-11-18T08:23:58.669Z,7.40
2022-11-18T08:26:26.196Z,7.40
2022-11-18T08:28:53.567Z,7.40
2022-11-18T08:31:25.629Z,7.50
2022-11-18T08:33:56.929Z,7.50
2022-11-18T08:36:25.932Z,7.50
2022-11-18T08:38:54.561Z,7.50
2022-11-18T08:41:30.537Z,7.50
2022-11-18T08:43:57.870Z,7.50
2022-11-18T08:46:25.207Z,7.50
2022-11-18T08:48:52.457Z,7.50
2022-11-18T08:51:19.627Z,7.60
2022-11-18T08:53:46.973Z,7.60
2022-11-18T08:56:18.813Z,7.60
2022-11-18T08:58:47.067Z,7.60
2022-11-18T09:01:14.437Z,7.50
2022-11-18T09:03:42.904Z,7.60
2022-11-18T09:06:12.047Z,7.60
2022-11-18T09:08:39.404Z,7.60
2022-11-18T09:11:11.624Z,7.60
2022-11-18T09:14:46.522Z,7.50
2022-11-18T09:16:28.310Z,7.50
2022-11-18T09:18:56.542Z,7.60
2022-11-18T09:21:24.239Z,7.60
2022-11-18T09:23:51.529Z,7.50
2022-11-18T09:26:20.917Z,7.60
2022-11-18T09:28:48.191Z,7.50
2022-11-18T09:31:16.853Z,7.50
2022-11-18T09:33:44.284Z,7.50
2022-11-18T09:36:16.835Z,7.50
2022-11-18T09:38:45.507Z,7.50
2022-11-18T09:41:34.308Z,7.40
2022-11-18T09:44:22.855Z,7.40
2022-11-18T09:46:58.965Z,7.30
2022-11-18T09:49:47.677Z,7.30
2022-11-18T09:52:34.267Z,7.20
2022-11-18T09:55:13.802Z,7.20
2022-11-18T09:57:46.690Z,7.10
2022-11-18T10:00:15.020Z,7.10
2022-11-18T10:03:06.293Z,7.10
2022-11-18T10:05:51.182Z,7.20
2022-11-18T10:08:28.933Z,7.20
2022-11-18T10:11:12.371Z,7.20
2022-11-18T10:13:47.108Z,7.20
2022-11-18T10:16:41.973Z,7.20
2022-11-18T10:19:29.590Z,7.20
2022-11-18T10:22:19.479Z,7.20
2022-11-18T10:24:54.036Z,7.20
2022-11-18T10:27:27.070Z,7.10
2022-11-18T10:29:56.069Z,7.10
2022-11-18T10:32:23.337Z,7.10
2022-11-18T10:34:52.561Z,7.10
2022-11-18T10:37:52.910Z,7.10
2022-11-18T10:40:26.775Z,7.10
2022-11-18T10:42:54.771Z,7.10
2022-11-18T10:45:25.150Z,7.10
2022-11-18T10:48:02.331Z,7.10
2022-11-18T10:50:43.684Z,7.10
2022-11-18T10:53:29.684Z,7.00
2022-11-18T10:56:03.974Z,7.00
2022-11-18T10:58:32.043Z,7.00
2022-11-18T11:01:26.086Z,6.90
2022-11-18T11:04:06.428Z,7.00
2022-11-18T11:06:40.570Z,6.90
2022-11-18T11:09:10.992Z,6.90
2022-11-18T11:11:45.844Z,7.00
2022-11-18T11:14:21.415Z,7.00
2022-11-18T11:16:57.940Z,7.10
2022-11-18T11:19:29.243Z,7.10
2022-11-18T11:21:57.082Z,7.10
2022-11-18T11:24:26.192Z,7.20
2022-11-18T11:29:54.301Z,7.20
2022-11-18T11:32:24.694Z,7.20
2022-11-18T11:35:21.500Z,7.30
2022-11-18T11:37:59.157Z,7.30
2022-11-18T11:40:53.352Z,7.20
2022-11-18T11:43:30.398Z,7.20
2022-11-18T11:46:01.945Z,7.20
2022-11-18T11:48:41.667Z,7.20
2022-11-18T11:51:18.644Z,7.20
2022-11-18T11:54:07.392Z,7.20
2022-11-18T11:56:38.962Z,7.20
2022-11-18T11:59:29.382Z,7.10
2022-11-18T12:02:38.905Z,7.10
2022-11-18T12:05:15.388Z,7.20
2022-11-18T12:07:54.074Z,7.10
2022-11-18T12:10:32.957Z,7.20
2022-11-18T12:13:39.438Z,7.10
2022-11-18T12:16:43.216Z,7.10
2022-11-18T12:19:17.221Z,7.20
2022-11-18T12:21:47.502Z,7.20
2022-11-18T12:24:31.010Z,7.20
2022-11-18T12:27:27.577Z,7.20
2022-11-18T12:29:56.899Z,7.20
2022-11-18T12:32:43.181Z,7.20
2022-11-18T12:35:13.587Z,7.10
2022-11-18T12:37:58.161Z,7.10
2022-11-18T12:40:31.680Z,7.10
2022-11-18T12:43:17.395Z,7.10
2022-11-18T12:45:44.860Z,7.10
2022-11-18T12:48:27.566Z,7.00
2022-11-18T12:51:16.155Z,7.00
2022-11-18T12:53:44.925Z,7.00
2022-11-18T12:56:19.101Z,6.90
2022-11-18T12:58:55.062Z,6.90
2022-11-18T13:01:24.389Z,6.90
2022-11-18T13:03:52.002Z,6.90
2022-11-18T13:06:31.943Z,6.90
2022-11-18T13:09:04.045Z,6.80
2022-11-18T13:11:44.807Z,6.80
2022-11-18T13:14:36.188Z,6.80
2022-11-18T13:17:22.500Z,6.70
2022-11-18T13:19:59.478Z,6.80
2022-11-18T13:22:45.183Z,6.70
2022-11-18T13:25:25.501Z,6.70
2022-11-18T13:28:17.545Z,6.70
2022-11-18T13:30:53.567Z,6.60
2022-11-18T13:33:21.221Z,6.60
2022-11-18T13:35:48.756Z,6.60
2022-11-18T13:38:27.747Z,6.60
2022-11-18T13:41:07.918Z,6.60
2022-11-18T13:43:35.433Z,6.60
2022-11-18T13:46:14.725Z,6.60
2022-11-18T13:48:47.217Z,6.60
2022-11-18T13:51:14.595Z,6.60
2022-11-18T13:53:42.936Z,6.70
2022-11-18T13:56:27.943Z,6.60
2022-11-18T13:59:17.745Z,6.70
2022-11-18T14:01:46.205Z,6.70
2022-11-18T14:04:21.668Z,6.70
2022-11-18T14:06:49.108Z,6.70
2022-11-18T14:09:29.832Z,6.70
2022-11-18T14:12:21.741Z,6.70
2022-11-18T14:14:49.059Z,6.70
2022-11-18T14:17:17.672Z,6.80
2022-11-18T14:19:45.176Z,6.80
2022-11-18T14:22:17.894Z,6.70
2022-11-18T14:24:45.183Z,6.80
2022-11-18T14:27:51.147Z,6.80
2022-11-18T14:30:34.195Z,6.80
2022-11-18T14:33:21.254Z,6.80
2022-11-18T14:35:56.130Z,6.80
2022-11-18T14:38:52.104Z,6.80
2022-11-18T14:41:44.500Z,6.80
2022-11-18T14:44:13.489Z,6.80
2022-11-18T14:46:42.629Z,6.80
2022-11-18T14:49:19.167Z,6.80
2022-11-18T14:51:48.479Z,6.80
2022-11-18T14:54:20.842Z,6.80
2022-11-18T14:56:57.122Z,6.80
2022-11-18T14:59:26.521Z,6.80
2022-11-18T15:01:54.026Z,6.80
2022-11-18T15:04:22.383Z,6.80
2022-11-18T15:06:49.842Z,6.80
2022-11-18T15:09:17.466Z,6.70
2022-11-18T15:11:45.290Z,6.70
2022-11-18T15:14:12.883Z,6.70
2022-11-18T15:16:40.284Z,6.70
2022-11-18T15:19:12.462Z,6.70
2022-11-18T15:21:40.174Z,6.70
2022-11-18T15:24:08.058Z,6.70
2022-11-18T15:26:37.556Z,6.60
2022-11-18T15:29:05.227Z,6.60
2022-11-18T15:31:33.019Z,6.60
2022-11-18T15:34:06.290Z,6.60
2022-11-18T15:36:36.292Z,6.60
2022-11-18T15:39:03.813Z,6.60
2022-11-18T15:41:31.485Z,6.60
2022-11-18T15:44:00.331Z,6.60
2022-11-18T15:46:28.109Z,6.60
2022-11-18T15:48:56.460Z,6.60
2022-11-18T15:51:24.376Z,6.60
2022-11-18T15:53:51.605Z,6.60
2022-11-18T15:56:18.859Z,6.60
2022-11-18T15:58:56.689Z,6.60
2022-11-18T16:01:25.193Z,6.60
2022-11-18T16:03:52.476Z,6.60
2022-11-18T16:06:19.727Z,6.60
2022-11-18T16:08:46.951Z,6.60
2022-11-18T16:11:33.656Z,6.60
2022-11-18T16:14:04.764Z,6.60
2022-11-18T16:16:32.358Z,6.60
2022-11-18T16:19:04.362Z,6.60
2022-11-18T16:21:37.615Z,6.60
2022-11-18T16:24:05.999Z,6.60
2022-11-18T16:26:33.648Z,6.60
2022-11-18T16:29:01.243Z,6.60
2022-11-18T16:31:40.431Z,6.60
2022-11-18T16:34:17.987Z,6.60
2022-11-18T16:36:49.366Z,6.60
2022-11-18T16:39:19.186Z,6.60
2022-11-18T16:41:47.115Z,6.60
2022-11-18T16:44:15.237Z,6.60
2022-11-18T16:46:46.864Z,6.70
2022-11-18T16:49:15.929Z,6.60
2022-11-18T16:51:45.251Z,6.60
2022-11-18T16:54:23.423Z,6.60
2022-11-18T16:56:53.340Z,6.60
2022-11-18T16:59:25.508Z,6.60
2022-11-18T17:01:53.717Z,6.60
2022-11-18T17:04:21.551Z,6.60
2022-11-18T17:06:50.405Z,6.60
2022-11-18T17:09:22.516Z,6.60
2022-11-18T17:11:51.362Z,6.60
2022-11-18T17:14:19.711Z,6.60
2022-11-18T17:16:47.658Z,6.60
2022-11-18T17:19:16.730Z,6.60
2022-11-18T17:21:45.513Z,6.60
2022-11-18T17:24:18.091Z,6.60
2022-11-18T17:26:46.285Z,6.50
2022-11-18T17:29:14.270Z,6.60
2022-11-18T17:31:42.813Z,6.60
2022-11-18T17:34:11.949Z,6.60
2022-11-18T17:36:39.832Z,6.60
2022-11-18T17:39:07.309Z,6.60
2022-11-18T17:41:53.437Z,6.60
2022-11-18T17:44:21.071Z,6.60
2022-11-18T17:46:49.392Z,6.60
2022-11-18T17:49:23.763Z,6.60
2022-11-18T17:51:51.496Z,6.60
2022-11-18T17:54:20.343Z,6.60
2022-11-18T17:56:48.591Z,6.60
2022-11-18T17:59:17.430Z,6.50
2022-11-18T18:01:45.938Z,6.60
2022-11-18T18:04:21.441Z,6.60
2022-11-18T18:06:51.269Z,6.60
2022-11-18T18:09:30.567Z,6.60
2022-11-18T18:12:00.476Z,6.60
2022-11-18T18:14:28.274Z,6.60
2022-11-18T18:16:57.687Z,6.60
2022-11-18T18:19:25.325Z,6.60
2022-11-18T18:21:53.576Z,6.60
2022-11-18T18:24:21.868Z,6.50
2022-11-18T18:26:49.560Z,6.60
2022-11-18T18:29:16.825Z,6.50
2022-11-18T18:31:44.087Z,6.50
2022-11-18T18:34:11.584Z,6.50
2022-11-18T18:36:38.789Z,6.50
2022-11-18T18:39:06.045Z,6.40
2022-11-18T18:41:33.348Z,6.40
2022-11-18T18:44:00.880Z,6.40
2022-11-18T18:46:36.459Z,6.30
2022-11-18T18:49:13.377Z,6.30
2022-11-18T18:51:43.994Z,6.30
2022-11-18T18:54:15.301Z,6.20
2022-11-18T18:56:42.790Z,6.20
2022-11-18T18:59:10.190Z,6.20
2022-11-18T19:01:38.119Z,6.20
2022-11-18T19:04:06.411Z,6.20
2022-11-18T19:09:26.065Z,6.20
2022-11-18T19:12:12.734Z,6.10
2022-11-18T19:14:40.335Z,6.10
2022-11-18T19:17:12.461Z,6.10
2022-11-18T19:19:59.770Z,6.10
2022-11-18T19:22:30.453Z,6.00
2022-11-18T19:24:58.403Z,6.00
2022-11-18T19:27:26.187Z,6.00
2022-11-18T19:29:53.585Z,6.00
2022-11-18T19:32:21.143Z,6.00
2022-11-18T19:34:48.425Z,6.00
2022-11-18T19:37:18.207Z,6.00
2022-11-18T19:39:46.262Z,6.00
2022-11-18T19:42:13.497Z,6.00
2022-11-18T19:44:40.909Z,6.00
2022-11-18T19:47:08.595Z,6.00
2022-11-18T19:49:36.241Z,6.00
2022-11-18T19:52:03.702Z,6.00
2022-11-18T19:54:31.195Z,6.00
2022-11-18T19:56:58.796Z,6.00
2022-11-18T19:59:26.429Z,6.00
2022-11-18T20:01:54.145Z,5.90
2022-11-18T20:04:21.566Z,6.00
2022-11-18T20:06:48.916Z,6.00
2022-11-18T20:09:16.496Z,5.90
2022-11-18T20:11:44.444Z,5.90
2022-11-18T20:14:11.972Z,5.90
2022-11-18T20:16:39.304Z,5.90
2022-11-18T20:19:13.578Z,5.90
2022-11-18T20:21:44.471Z,5.80
2022-11-18T20:24:16.434Z,5.80
2022-11-18T20:26:44.351Z,5.80
2022-11-18T20:29:11.823Z,5.70
2022-11-18T20:31:39.162Z,5.80
2022-11-18T20:34:06.404Z,5.70
2022-11-18T20:36:35.726Z,5.70
2022-11-18T20:39:05.287Z,5.70
2022-11-18T20:41:32.690Z,5.70
2022-11-18T20:44:00.999Z,5.70
2022-11-18T20:46:28.519Z,5.60
2022-11-18T20:48:55.933Z,5.60
2022-11-18T20:51:24.630Z,5.60
2022-11-18T20:53:52.826Z,5.60
2022-11-18T20:56:24.180Z,5.50
2022-11-18T20:58:51.625Z,5.60
2022-11-18T21:01:25.330Z,5.50
2022-11-18T21:03:55.172Z,5.50
2022-11-18T21:06:23.714Z,5.50
2022-11-18T21:08:55.185Z,5.50
2022-11-18T21:11:22.433Z,5.40
2022-11-18T21:14:09.188Z,5.40
2022-11-18T21:16:36.504Z,5.40
2022-11-18T21:19:04.683Z,5.30
2022-11-18T21:21:44.697Z,5.30
2022-11-18T21:24:13.163Z,5.30
2022-11-18T21:26:40.438Z,5.30
2022-11-18T21:29:09.072Z,5.30
2022-11-18T21:31:36.528Z,5.30
2022-11-18T21:34:03.899Z,5.20
2022-11-18T21:36:32.193Z,5.20
2022-11-18T21:38:59.802Z,5.20
2022-11-18T21:41:27.693Z,5.10
2022-11-18T21:44:10.242Z,5.20
2022-11-18T21:46:38.805Z,5.20
2022-11-18T21:49:06.177Z,5.20
2022-11-18T21:51:33.662Z,5.20
2022-11-18T21:54:01.038Z,5.20
2022-11-18T21:56:30.539Z,5.20
2022-11-18T21:59:00.110Z,5.20
2022-11-18T22:01:28.969Z,5.30
2022-11-18T22:03:59.281Z,5.30
2022-11-18T22:06:29.566Z,5.30
2022-11-18T22:08:56.933Z,5.30
2022-11-18T22:11:25.585Z,5.30
2022-11-18T22:13:53.195Z,5.30
2022-11-18T22:16:22.349Z,5.30
2022-11-18T22:18:56.975Z,5.40
2022-11-18T22:21:27.272Z,5.40
2022-11-18T22:23:58.032Z,5.40
2022-11-18T22:26:25.287Z,5.30
2022-11-18T22:28:53.600Z,5.40
2022-11-18T22:31:21.228Z,5.30
2022-11-18T22:33:49.517Z,5.30
2022-11-18T22:36:17.793Z,5.30
2022-11-18T22:38:45.292Z,5.30
2022-11-18T22:41:51.494Z,5.30
2022-11-18T22:44:18.772Z,5.30
2022-11-18T22:46:46.125Z,5.20
2022-11-18T22:49:13.712Z,5.20
2022-11-18T22:51:41.013Z,5.20
2022-11-18T22:54:38.427Z,5.20
2022-11-18T22:56:55.786Z,5.20
2022-11-18T22:59:23.479Z,5.20
2022-11-18T23:01:51.508Z,5.30
2022-11-18T23:04:18.757Z,5.30
2022-11-18T23:06:46.023Z,5.30
2022-11-18T23:09:13.343Z,5.30
2022-11-18T23:12:00.441Z,5.30
2022-11-18T23:14:27.793Z,5.30
2022-11-18T23:16:55.052Z,5.40
2022-11-18T23:19:22.462Z,5.30
2022-11-18T23:21:49.843Z,5.30
2022-11-18T23:24:18.128Z,5.40
2022-11-18T23:26:45.553Z,5.40
2022-11-18T23:29:13.119Z,5.40
2022-11-18T23:31:44.152Z,5.40
2022-11-18T23:34:12.396Z,5.40
2022-11-18T23:36:39.977Z,5.40
2022-11-18T23:39:07.373Z,5.40
2022-11-18T23:41:34.717Z,5.40
2022-11-18T23:44:02.053Z,5.40
2022-11-18T23:46:29.356Z,5.40
2022-11-18T23:48:56.788Z,5.40
2022-11-18T23:51:24.711Z,5.50
2022-11-18T23:53:53.983Z,5.50
2022-11-18T23:56:22.610Z,5.50
2022-11-18T23:58:51.031Z,5.50
